sensor_id;sensor_type;location;lat;lon;timestamp;P1;durP1;ratioP1;P2;durP2;ratioP2
15931;SDS011;8065;49.520;11.284;2023-03-23T00:00:36;6.93;;;3.57;;
15931;SDS011;8065;49.520;11.284;2023-03-23T00:03:03;8.37;;;3.47;;
15931;SDS011;8065;49.520;11.284;2023-03-23T00:05:30;5.67;;;3.50;;
15931;SDS011;8065;49.520;11.284;2023-03-23T00:07:56;6.80;;;4.03;;
15931;SDS011;8065;49.520;11.284;2023-03-23T00:10:24;5.03;;;3.40;;
15931;SDS011;8065;49.520;11.284;2023-03-23T00:12:52;5.00;;;3.70;;
15931;SDS011;8065;49.520;11.284;2023-03-23T00:15:21;5.93;;;3.90;;
15931;SDS011;8065;49.520;11.284;2023-03-23T00:17:49;4.83;;;3.40;;
15931;SDS011;8065;49.520;11.284;2023-03-23T00:20:16;4.53;;;3.60;;
15931;SDS011;8065;49.520;11.284;2023-03-23T00:22:42;6.00;;;3.53;;
15931;SDS011;8065;49.520;11.284;2023-03-23T00:25:09;4.23;;;3.40;;
15931;SDS011;8065;49.520;11.284;2023-03-23T00:27:35;3.80;;;3.23;;
15931;SDS011;8065;49.520;11.284;2023-03-23T00:30:03;4.43;;;3.27;;
15931;SDS011;8065;49.520;11.284;2023-03-23T00:32:31;4.87;;;3.17;;
15931;SDS011;8065;49.520;11.284;2023-03-23T00:34:57;4.13;;;2.93;;
15931;SDS011;8065;49.520;11.284;2023-03-23T00:37:24;4.20;;;3.03;;
15931;SDS011;8065;49.520;11.284;2023-03-23T00:39:51;5.40;;;3.40;;
15931;SDS011;8065;49.520;11.284;2023-03-23T00:42:22;4.10;;;3.10;;
15931;SDS011;8065;49.520;11.284;2023-03-23T00:44:49;3.27;;;2.90;;
15931;SDS011;8065;49.520;11.284;2023-03-23T00:47:17;3.47;;;3.10;;
15931;SDS011;8065;49.520;11.284;2023-03-23T00:49:43;4.23;;;2.90;;
15931;SDS011;8065;49.520;11.284;2023-03-23T00:52:09;10.83;;;3.57;;
15931;SDS011;8065;49.520;11.284;2023-03-23T00:54:37;3.87;;;3.30;;
15931;SDS011;8065;49.520;11.284;2023-03-23T00:57:04;3.90;;;3.13;;
15931;SDS011;8065;49.520;11.284;2023-03-23T00:59:31;4.27;;;3.40;;
15931;SDS011;8065;49.520;11.284;2023-03-23T01:01:57;6.17;;;4.00;;
15931;SDS011;8065;49.520;11.284;2023-03-23T01:04:25;5.27;;;3.47;;
15931;SDS011;8065;49.520;11.284;2023-03-23T01:06:53;3.80;;;3.40;;
15931;SDS011;8065;49.520;11.284;2023-03-23T01:09:21;6.20;;;3.83;;
15931;SDS011;8065;49.520;11.284;2023-03-23T01:11:48;5.87;;;3.60;;
15931;SDS011;8065;49.520;11.284;2023-03-23T01:14:17;4.83;;;3.63;;
15931;SDS011;8065;49.520;11.284;2023-03-23T01:16:45;6.20;;;3.90;;
15931;SDS011;8065;49.520;11.284;2023-03-23T01:19:12;4.37;;;3.83;;
15931;SDS011;8065;49.520;11.284;2023-03-23T01:21:41;4.37;;;3.73;;
15931;SDS011;8065;49.520;11.284;2023-03-23T01:24:08;4.70;;;3.63;;
15931;SDS011;8065;49.520;11.284;2023-03-23T01:26:34;5.50;;;3.50;;
15931;SDS011;8065;49.520;11.284;2023-03-23T01:29:01;4.33;;;3.90;;
15931;SDS011;8065;49.520;11.284;2023-03-23T01:31:27;3.73;;;3.40;;
15931;SDS011;8065;49.520;11.284;2023-03-23T01:33:54;5.53;;;3.47;;
15931;SDS011;8065;49.520;11.284;2023-03-23T01:36:22;5.23;;;3.80;;
15931;SDS011;8065;49.520;11.284;2023-03-23T01:38:51;3.73;;;3.43;;
15931;SDS011;8065;49.520;11.284;2023-03-23T01:41:18;4.67;;;3.83;;
15931;SDS011;8065;49.520;11.284;2023-03-23T01:46:31;4.70;;;3.70;;
15931;SDS011;8065;49.520;11.284;2023-03-23T01:49:00;3.97;;;3.50;;
15931;SDS011;8065;49.520;11.284;2023-03-23T01:51:31;4.30;;;3.50;;
15931;SDS011;8065;49.520;11.284;2023-03-23T01:54:03;3.90;;;3.50;;
15931;SDS011;8065;49.520;11.284;2023-03-23T01:56:33;3.83;;;3.00;;
15931;SDS011;8065;49.520;11.284;2023-03-23T01:59:06;4.60;;;3.30;;
15931;SDS011;8065;49.520;11.284;2023-03-23T02:01:34;3.63;;;3.30;;
15931;SDS011;8065;49.520;11.284;2023-03-23T02:04:03;4.27;;;3.30;;
15931;SDS011;8065;49.520;11.284;2023-03-23T02:06:30;3.37;;;2.93;;
15931;SDS011;8065;49.520;11.284;2023-03-23T02:08:58;4.13;;;3.00;;
15931;SDS011;8065;49.520;11.284;2023-03-23T02:11:27;3.13;;;2.83;;
15931;SDS011;8065;49.520;11.284;2023-03-23T02:13:53;3.80;;;2.90;;
15931;SDS011;8065;49.520;11.284;2023-03-23T02:16:27;4.83;;;2.70;;
15931;SDS011;8065;49.520;11.284;2023-03-23T02:19:03;4.50;;;2.73;;
15931;SDS011;8065;49.520;11.284;2023-03-23T02:24:55;5.50;;;3.40;;
15931;SDS011;8065;49.520;11.284;2023-03-23T02:27:33;3.20;;;2.90;;
15931;SDS011;8065;49.520;11.284;2023-03-23T02:30:23;4.50;;;2.60;;
15931;SDS011;8065;49.520;11.284;2023-03-23T02:36:11;4.57;;;3.10;;
15931;SDS011;8065;49.520;11.284;2023-03-23T02:38:48;3.53;;;2.57;;
15931;SDS011;8065;49.520;11.284;2023-03-23T02:41:19;3.40;;;2.63;;
15931;SDS011;8065;49.520;11.284;2023-03-23T02:43:50;3.00;;;2.70;;
15931;SDS011;8065;49.520;11.284;2023-03-23T02:46:19;2.97;;;2.70;;
15931;SDS011;8065;49.520;11.284;2023-03-23T02:48:49;5.27;;;2.73;;
15931;SDS011;8065;49.520;11.284;2023-03-23T02:51:17;4.13;;;3.07;;
15931;SDS011;8065;49.520;11.284;2023-03-23T02:53:46;4.00;;;3.23;;
15931;SDS011;8065;49.520;11.284;2023-03-23T02:56:15;3.97;;;2.87;;
15931;SDS011;8065;49.520;11.284;2023-03-23T02:58:43;4.67;;;3.30;;
15931;SDS011;8065;49.520;11.284;2023-03-23T03:01:14;4.50;;;3.20;;
15931;SDS011;8065;49.520;11.284;2023-03-23T03:04:05;4.83;;;3.00;;
15931;SDS011;8065;49.520;11.284;2023-03-23T03:06:35;4.33;;;3.30;;
15931;SDS011;8065;49.520;11.284;2023-03-23T03:09:07;3.33;;;3.03;;
15931;SDS011;8065;49.520;11.284;2023-03-23T03:11:40;3.47;;;2.83;;
15931;SDS011;8065;49.520;11.284;2023-03-23T03:14:13;5.80;;;3.00;;
15931;SDS011;8065;49.520;11.284;2023-03-23T03:16:49;4.20;;;3.07;;
15931;SDS011;8065;49.520;11.284;2023-03-23T03:19:23;4.83;;;2.93;;
15931;SDS011;8065;49.520;11.284;2023-03-23T03:21:54;2.97;;;2.50;;
15931;SDS011;8065;49.520;11.284;2023-03-23T03:24:22;4.93;;;3.03;;
15931;SDS011;8065;49.520;11.284;2023-03-23T03:26:52;3.63;;;2.87;;
15931;SDS011;8065;49.520;11.284;2023-03-23T03:29:23;4.13;;;2.93;;
15931;SDS011;8065;49.520;11.284;2023-03-23T03:31:52;3.43;;;2.77;;
15931;SDS011;8065;49.520;11.284;2023-03-23T03:34:23;4.90;;;3.03;;
15931;SDS011;8065;49.520;11.284;2023-03-23T03:36:50;4.53;;;3.10;;
15931;SDS011;8065;49.520;11.284;2023-03-23T03:39:18;4.60;;;2.63;;
15931;SDS011;8065;49.520;11.284;2023-03-23T03:41:46;4.67;;;3.03;;
15931;SDS011;8065;49.520;11.284;2023-03-23T03:44:13;2.90;;;2.57;;
15931;SDS011;8065;49.520;11.284;2023-03-23T03:46:41;3.50;;;2.90;;
15931;SDS011;8065;49.520;11.284;2023-03-23T03:49:08;5.53;;;3.10;;
15931;SDS011;8065;49.520;11.284;2023-03-23T03:51:38;4.93;;;2.73;;
15931;SDS011;8065;49.520;11.284;2023-03-23T03:54:05;4.60;;;3.23;;
15931;SDS011;8065;49.520;11.284;2023-03-23T03:56:32;5.43;;;2.97;;
15931;SDS011;8065;49.520;11.284;2023-03-23T03:59:01;3.00;;;2.37;;
15931;SDS011;8065;49.520;11.284;2023-03-23T04:01:27;4.20;;;2.43;;
15931;SDS011;8065;49.520;11.284;2023-03-23T04:03:54;4.17;;;2.33;;
15931;SDS011;8065;49.520;11.284;2023-03-23T04:06:22;4.50;;;2.30;;
15931;SDS011;8065;49.520;11.284;2023-03-23T04:08:50;3.07;;;1.70;;
15931;SDS011;8065;49.520;11.284;2023-03-23T04:11:16;2.30;;;1.80;;
15931;SDS011;8065;49.520;11.284;2023-03-23T04:13:42;2.80;;;2.00;;
15931;SDS011;8065;49.520;11.284;2023-03-23T04:16:09;2.43;;;1.60;;
15931;SDS011;8065;49.520;11.284;2023-03-23T04:18:36;1.80;;;1.70;;
15931;SDS011;8065;49.520;11.284;2023-03-23T04:21:03;1.67;;;1.57;;
15931;SDS011;8065;49.520;11.284;2023-03-23T04:23:33;2.80;;;1.60;;
15931;SDS011;8065;49.520;11.284;2023-03-23T04:26:02;2.83;;;1.50;;
15931;SDS011;8065;49.520;11.284;2023-03-23T04:28:29;1.47;;;1.37;;
15931;SDS011;8065;49.520;11.284;2023-03-23T04:30:58;3.37;;;1.50;;
15931;SDS011;8065;49.520;11.284;2023-03-23T04:33:27;3.33;;;1.60;;
15931;SDS011;8065;49.520;11.284;2023-03-23T04:35:56;1.77;;;1.67;;
15931;SDS011;8065;49.520;11.284;2023-03-23T04:38:26;1.40;;;1.30;;
15931;SDS011;8065;49.520;11.284;2023-03-23T04:40:54;2.33;;;1.43;;
15931;SDS011;8065;49.520;11.284;2023-03-23T04:43:23;1.83;;;1.30;;
15931;SDS011;8065;49.520;11.284;2023-03-23T04:45:52;2.70;;;1.40;;
15931;SDS011;8065;49.520;11.284;2023-03-23T04:48:21;2.40;;;1.53;;
15931;SDS011;8065;49.520;11.284;2023-03-23T04:50:47;1.57;;;1.47;;
15931;SDS011;8065;49.520;11.284;2023-03-23T04:53:15;3.57;;;1.60;;
15931;SDS011;8065;49.520;11.284;2023-03-23T04:55:43;1.50;;;1.40;;
15931;SDS011;8065;49.520;11.284;2023-03-23T04:58:09;1.93;;;1.53;;
15931;SDS011;8065;49.520;11.284;2023-03-23T05:00:40;1.87;;;1.50;;
15931;SDS011;8065;49.520;11.284;2023-03-23T05:03:08;1.27;;;1.20;;
15931;SDS011;8065;49.520;11.284;2023-03-23T05:05:35;1.57;;;1.40;;
15931;SDS011;8065;49.520;11.284;2023-03-23T05:08:02;3.10;;;1.70;;
15931;SDS011;8065;49.520;11.284;2023-03-23T05:10:29;2.33;;;1.60;;
15931;SDS011;8065;49.520;11.284;2023-03-23T05:12:55;2.43;;;1.50;;
15931;SDS011;8065;49.520;11.284;2023-03-23T05:15:22;1.53;;;1.43;;
15931;SDS011;8065;49.520;11.284;2023-03-23T05:17:51;1.60;;;1.50;;
15931;SDS011;8065;49.520;11.284;2023-03-23T05:20:18;1.40;;;1.30;;
15931;SDS011;8065;49.520;11.284;2023-03-23T05:22:45;1.93;;;1.40;;
15931;SDS011;8065;49.520;11.284;2023-03-23T05:25:12;1.63;;;1.47;;
15931;SDS011;8065;49.520;11.284;2023-03-23T05:27:40;1.77;;;1.30;;
15931;SDS011;8065;49.520;11.284;2023-03-23T05:30:08;1.50;;;1.40;;
15931;SDS011;8065;49.520;11.284;2023-03-23T05:32:36;3.03;;;1.73;;
15931;SDS011;8065;49.520;11.284;2023-03-23T05:35:04;1.90;;;1.60;;
15931;SDS011;8065;49.520;11.284;2023-03-23T05:37:31;3.10;;;1.57;;
15931;SDS011;8065;49.520;11.284;2023-03-23T05:39:58;1.73;;;1.37;;
15931;SDS011;8065;49.520;11.284;2023-03-23T05:42:26;1.50;;;1.37;;
15931;SDS011;8065;49.520;11.284;2023-03-23T05:44:53;1.83;;;1.40;;
15931;SDS011;8065;49.520;11.284;2023-03-23T05:47:19;3.20;;;1.70;;
15931;SDS011;8065;49.520;11.284;2023-03-23T05:49:46;2.03;;;1.50;;
15931;SDS011;8065;49.520;11.284;2023-03-23T05:52:14;2.07;;;1.50;;
15931;SDS011;8065;49.520;11.284;2023-03-23T05:54:40;2.27;;;1.60;;
15931;SDS011;8065;49.520;11.284;2023-03-23T05:57:07;2.57;;;1.50;;
15931;SDS011;8065;49.520;11.284;2023-03-23T05:59:34;3.50;;;1.37;;
15931;SDS011;8065;49.520;11.284;2023-03-23T06:02:00;2.53;;;1.60;;
15931;SDS011;8065;49.520;11.284;2023-03-23T06:04:27;3.07;;;1.50;;
15931;SDS011;8065;49.520;11.284;2023-03-23T06:09:21;4.00;;;2.37;;
15931;SDS011;8065;49.520;11.284;2023-03-23T06:11:50;2.40;;;1.90;;
15931;SDS011;8065;49.520;11.284;2023-03-23T06:14:16;4.70;;;2.77;;
15931;SDS011;8065;49.520;11.284;2023-03-23T06:16:43;4.53;;;2.20;;
15931;SDS011;8065;49.520;11.284;2023-03-23T06:19:10;3.00;;;2.53;;
15931;SDS011;8065;49.520;11.284;2023-03-23T06:21:37;4.57;;;3.60;;
15931;SDS011;8065;49.520;11.284;2023-03-23T06:24:03;2.30;;;1.93;;
15931;SDS011;8065;49.520;11.284;2023-03-23T06:26:32;3.23;;;1.90;;
15931;SDS011;8065;49.520;11.284;2023-03-23T06:29:01;1.80;;;1.60;;
15931;SDS011;8065;49.520;11.284;2023-03-23T06:31:29;2.30;;;1.80;;
15931;SDS011;8065;49.520;11.284;2023-03-23T06:33:56;5.77;;;1.40;;
15931;SDS011;8065;49.520;11.284;2023-03-23T06:36:23;2.63;;;1.70;;
15931;SDS011;8065;49.520;11.284;2023-03-23T06:38:51;1.70;;;1.60;;
15931;SDS011;8065;49.520;11.284;2023-03-23T06:41:18;1.77;;;1.50;;
15931;SDS011;8065;49.520;11.284;2023-03-23T06:43:46;1.77;;;1.60;;
15931;SDS011;8065;49.520;11.284;2023-03-23T06:46:12;3.60;;;1.97;;
15931;SDS011;8065;49.520;11.284;2023-03-23T06:48:38;1.80;;;1.50;;
15931;SDS011;8065;49.520;11.284;2023-03-23T06:51:05;3.23;;;1.70;;
15931;SDS011;8065;49.520;11.284;2023-03-23T06:53:32;1.70;;;1.60;;
15931;SDS011;8065;49.520;11.284;2023-03-23T06:55:58;2.13;;;1.73;;
15931;SDS011;8065;49.520;11.284;2023-03-23T06:58:25;1.87;;;1.50;;
15931;SDS011;8065;49.520;11.284;2023-03-23T07:00:56;2.10;;;1.73;;
15931;SDS011;8065;49.520;11.284;2023-03-23T07:03:23;3.17;;;1.70;;
15931;SDS011;8065;49.520;11.284;2023-03-23T07:05:50;1.60;;;1.50;;
15931;SDS011;8065;49.520;11.284;2023-03-23T07:08:17;2.73;;;1.70;;
15931;SDS011;8065;49.520;11.284;2023-03-23T07:10:43;1.67;;;1.50;;
15931;SDS011;8065;49.520;11.284;2023-03-23T07:13:10;2.70;;;1.57;;
15931;SDS011;8065;49.520;11.284;2023-03-23T07:15:36;2.67;;;1.90;;
15931;SDS011;8065;49.520;11.284;2023-03-23T07:18:04;2.57;;;1.50;;
15931;SDS011;8065;49.520;11.284;2023-03-23T07:20:30;1.77;;;1.60;;
15931;SDS011;8065;49.520;11.284;2023-03-23T07:22:57;1.80;;;1.70;;
15931;SDS011;8065;49.520;11.284;2023-03-23T07:25:23;1.83;;;1.73;;
15931;SDS011;8065;49.520;11.284;2023-03-23T07:27:50;1.80;;;1.70;;
15931;SDS011;8065;49.520;11.284;2023-03-23T07:30:17;2.07;;;1.77;;
15931;SDS011;8065;49.520;11.284;2023-03-23T07:32:43;3.50;;;1.90;;
15931;SDS011;8065;49.520;11.284;2023-03-23T07:35:11;1.70;;;1.60;;
15931;SDS011;8065;49.520;11.284;2023-03-23T07:37:37;2.60;;;1.83;;
15931;SDS011;8065;49.520;11.284;2023-03-23T07:40:04;2.60;;;1.80;;
15931;SDS011;8065;49.520;11.284;2023-03-23T07:42:39;2.30;;;2.10;;
15931;SDS011;8065;49.520;11.284;2023-03-23T07:45:07;1.97;;;1.70;;
15931;SDS011;8065;49.520;11.284;2023-03-23T07:47:33;2.27;;;2.07;;
15931;SDS011;8065;49.520;11.284;2023-03-23T07:50:00;2.30;;;1.93;;
15931;SDS011;8065;49.520;11.284;2023-03-23T07:52:28;2.00;;;1.87;;
15931;SDS011;8065;49.520;11.284;2023-03-23T07:54:55;2.80;;;2.07;;
15931;SDS011;8065;49.520;11.284;2023-03-23T07:57:21;3.77;;;2.47;;
15931;SDS011;8065;49.520;11.284;2023-03-23T07:59:48;3.20;;;2.10;;
15931;SDS011;8065;49.520;11.284;2023-03-23T08:02:14;2.50;;;2.10;;
15931;SDS011;8065;49.520;11.284;2023-03-23T08:04:41;3.00;;;2.70;;
15931;SDS011;8065;49.520;11.284;2023-03-23T08:07:09;5.40;;;2.50;;
15931;SDS011;8065;49.520;11.284;2023-03-23T08:09:38;2.90;;;2.10;;
15931;SDS011;8065;49.520;11.284;2023-03-23T08:12:05;2.73;;;2.33;;
15931;SDS011;8065;49.520;11.284;2023-03-23T08:14:32;3.23;;;2.13;;
15931;SDS011;8065;49.520;11.284;2023-03-23T08:16:58;2.93;;;2.20;;
15931;SDS011;8065;49.520;11.284;2023-03-23T08:19:25;2.90;;;2.53;;
15931;SDS011;8065;49.520;11.284;2023-03-23T08:21:52;3.13;;;2.20;;
15931;SDS011;8065;49.520;11.284;2023-03-23T08:24:18;3.33;;;2.00;;
15931;SDS011;8065;49.520;11.284;2023-03-23T08:26:47;3.43;;;2.10;;
15931;SDS011;8065;49.520;11.284;2023-03-23T08:29:13;4.57;;;2.57;;
15931;SDS011;8065;49.520;11.284;2023-03-23T08:31:41;2.57;;;2.17;;
15931;SDS011;8065;49.520;11.284;2023-03-23T08:34:09;3.10;;;2.20;;
15931;SDS011;8065;49.520;11.284;2023-03-23T08:36:36;3.40;;;1.97;;
15931;SDS011;8065;49.520;11.284;2023-03-23T08:39:03;2.80;;;2.20;;
15931;SDS011;8065;49.520;11.284;2023-03-23T08:41:30;3.07;;;2.30;;
15931;SDS011;8065;49.520;11.284;2023-03-23T08:43:58;3.53;;;2.30;;
15931;SDS011;8065;49.520;11.284;2023-03-23T08:46:25;3.17;;;2.40;;
15931;SDS011;8065;49.520;11.284;2023-03-23T08:48:51;3.10;;;2.33;;
15931;SDS011;8065;49.520;11.284;2023-03-23T08:51:18;4.90;;;2.57;;
15931;SDS011;8065;49.520;11.284;2023-03-23T08:53:44;4.17;;;2.80;;
15931;SDS011;8065;49.520;11.284;2023-03-23T08:56:11;5.13;;;3.50;;
15931;SDS011;8065;49.520;11.284;2023-03-23T08:58:38;7.17;;;4.27;;
15931;SDS011;8065;49.520;11.284;2023-03-23T09:01:07;7.27;;;4.03;;
15931;SDS011;8065;49.520;11.284;2023-03-23T09:03:35;6.50;;;4.80;;
15931;SDS011;8065;49.520;11.284;2023-03-23T09:06:04;10.60;;;6.93;;
15931;SDS011;8065;49.520;11.284;2023-03-23T09:08:33;6.67;;;4.63;;
15931;SDS011;8065;49.520;11.284;2023-03-23T09:11:00;4.27;;;3.63;;
15931;SDS011;8065;49.520;11.284;2023-03-23T09:13:27;4.37;;;2.87;;
15931;SDS011;8065;49.520;11.284;2023-03-23T09:15:54;2.80;;;2.60;;
15931;SDS011;8065;49.520;11.284;2023-03-23T09:18:22;2.80;;;2.20;;
15931;SDS011;8065;49.520;11.284;2023-03-23T09:20:50;4.10;;;2.40;;
15931;SDS011;8065;49.520;11.284;2023-03-23T09:23:17;2.70;;;2.20;;
15931;SDS011;8065;49.520;11.284;2023-03-23T09:25:45;2.87;;;2.63;;
15931;SDS011;8065;49.520;11.284;2023-03-23T09:28:12;3.20;;;2.60;;
15931;SDS011;8065;49.520;11.284;2023-03-23T09:30:39;2.50;;;2.30;;
15931;SDS011;8065;49.520;11.284;2023-03-23T09:33:07;6.20;;;2.80;;
15931;SDS011;8065;49.520;11.284;2023-03-23T09:35:36;4.07;;;3.07;;
15931;SDS011;8065;49.520;11.284;2023-03-23T09:38:03;3.30;;;2.80;;
15931;SDS011;8065;49.520;11.284;2023-03-23T09:40:32;4.23;;;2.87;;
15931;SDS011;8065;49.520;11.284;2023-03-23T09:43:10;2.97;;;2.77;;
15931;SDS011;8065;49.520;11.284;2023-03-23T09:46:03;5.57;;;2.70;;
15931;SDS011;8065;49.520;11.284;2023-03-23T09:48:45;3.00;;;2.70;;
15931;SDS011;8065;49.520;11.284;2023-03-23T09:51:19;3.67;;;2.77;;
15931;SDS011;8065;49.520;11.284;2023-03-23T09:53:54;2.93;;;2.60;;
15931;SDS011;8065;49.520;11.284;2023-03-23T09:56:24;4.03;;;2.90;;
15931;SDS011;8065;49.520;11.284;2023-03-23T09:58:58;3.90;;;2.80;;
15931;SDS011;8065;49.520;11.284;2023-03-23T10:01:30;4.93;;;2.90;;
15931;SDS011;8065;49.520;11.284;2023-03-23T10:04:01;3.00;;;2.67;;
15931;SDS011;8065;49.520;11.284;2023-03-23T10:06:34;3.07;;;2.77;;
15931;SDS011;8065;49.520;11.284;2023-03-23T10:09:02;4.93;;;2.90;;
15931;SDS011;8065;49.520;11.284;2023-03-23T10:11:33;3.50;;;3.00;;
15931;SDS011;8065;49.520;11.284;2023-03-23T10:14:08;3.50;;;2.83;;
15931;SDS011;8065;49.520;11.284;2023-03-23T10:16:46;3.10;;;2.73;;
15931;SDS011;8065;49.520;11.284;2023-03-23T10:19:20;3.80;;;2.60;;
15931;SDS011;8065;49.520;11.284;2023-03-23T10:22:03;4.20;;;3.10;;
15931;SDS011;8065;49.520;11.284;2023-03-23T10:24:35;4.20;;;2.73;;
15931;SDS011;8065;49.520;11.284;2023-03-23T10:27:11;3.17;;;2.60;;
15931;SDS011;8065;49.520;11.284;2023-03-23T10:29:46;5.43;;;3.33;;
15931;SDS011;8065;49.520;11.284;2023-03-23T10:32:17;4.37;;;2.70;;
15931;SDS011;8065;49.520;11.284;2023-03-23T10:34:49;4.30;;;2.83;;
15931;SDS011;8065;49.520;11.284;2023-03-23T10:37:21;3.93;;;2.70;;
15931;SDS011;8065;49.520;11.284;2023-03-23T10:39:52;3.00;;;2.77;;
15931;SDS011;8065;49.520;11.284;2023-03-23T10:42:24;3.10;;;2.80;;
15931;SDS011;8065;49.520;11.284;2023-03-23T10:44:52;5.83;;;2.70;;
15931;SDS011;8065;49.520;11.284;2023-03-23T10:47:19;4.17;;;2.60;;
15931;SDS011;8065;49.520;11.284;2023-03-23T10:49:47;3.63;;;2.47;;
15931;SDS011;8065;49.520;11.284;2023-03-23T10:52:23;4.00;;;2.23;;
15931;SDS011;8065;49.520;11.284;2023-03-23T10:54:55;4.20;;;2.63;;
15931;SDS011;8065;49.520;11.284;2023-03-23T10:57:24;3.63;;;2.60;;
15931;SDS011;8065;49.520;11.284;2023-03-23T10:59:57;2.70;;;2.23;;
15931;SDS011;8065;49.520;11.284;2023-03-23T11:02:26;3.33;;;2.20;;
15931;SDS011;8065;49.520;11.284;2023-03-23T11:04:54;2.87;;;2.00;;
15931;SDS011;8065;49.520;11.284;2023-03-23T11:07:26;2.20;;;2.00;;
15931;SDS011;8065;49.520;11.284;2023-03-23T11:09:55;2.17;;;2.00;;
15931;SDS011;8065;49.520;11.284;2023-03-23T11:12:32;4.33;;;2.00;;
15931;SDS011;8065;49.520;11.284;2023-03-23T11:15:03;2.30;;;2.10;;
15931;SDS011;8065;49.520;11.284;2023-03-23T11:17:41;2.73;;;1.90;;
15931;SDS011;8065;49.520;11.284;2023-03-23T11:20:11;1.73;;;1.63;;
15931;SDS011;8065;49.520;11.284;2023-03-23T11:22:39;3.43;;;1.87;;
15931;SDS011;8065;49.520;11.284;2023-03-23T11:25:09;1.93;;;1.73;;
15931;SDS011;8065;49.520;11.284;2023-03-23T11:27:39;3.73;;;1.70;;
15931;SDS011;8065;49.520;11.284;2023-03-23T11:30:08;2.43;;;1.60;;
15931;SDS011;8065;49.520;11.284;2023-03-23T11:32:37;2.80;;;1.50;;
15931;SDS011;8065;49.520;11.284;2023-03-23T11:35:04;1.40;;;1.30;;
15931;SDS011;8065;49.520;11.284;2023-03-23T11:37:43;2.20;;;1.23;;
15931;SDS011;8065;49.520;11.284;2023-03-23T11:40:14;2.27;;;1.30;;
15931;SDS011;8065;49.520;11.284;2023-03-23T11:42:43;1.30;;;1.20;;
15931;SDS011;8065;49.520;11.284;2023-03-23T11:45:16;1.93;;;1.50;;
15931;SDS011;8065;49.520;11.284;2023-03-23T11:47:48;2.00;;;1.50;;
15931;SDS011;8065;49.520;11.284;2023-03-23T11:50:22;1.20;;;1.10;;
15931;SDS011;8065;49.520;11.284;2023-03-23T11:52:52;1.57;;;1.40;;
15931;SDS011;8065;49.520;11.284;2023-03-23T11:55:27;1.50;;;1.40;;
15931;SDS011;8065;49.520;11.284;2023-03-23T11:58:00;1.40;;;1.20;;
15931;SDS011;8065;49.520;11.284;2023-03-23T12:00:33;1.57;;;1.40;;
15931;SDS011;8065;49.520;11.284;2023-03-23T12:03:02;2.80;;;1.47;;
15931;SDS011;8065;49.520;11.284;2023-03-23T12:05:39;1.67;;;1.30;;
15931;SDS011;8065;49.520;11.284;2023-03-23T12:08:17;2.47;;;1.43;;
15931;SDS011;8065;49.520;11.284;2023-03-23T12:10:56;1.60;;;1.30;;
15931;SDS011;8065;49.520;11.284;2023-03-23T12:13:42;1.80;;;1.60;;
15931;SDS011;8065;49.520;11.284;2023-03-23T12:16:20;1.50;;;1.40;;
15931;SDS011;8065;49.520;11.284;2023-03-23T12:19:09;1.57;;;1.47;;
15931;SDS011;8065;49.520;11.284;2023-03-23T12:21:43;1.50;;;1.40;;
15931;SDS011;8065;49.520;11.284;2023-03-23T12:24:21;1.73;;;1.43;;
15931;SDS011;8065;49.520;11.284;2023-03-23T12:26:59;1.60;;;1.50;;
15931;SDS011;8065;49.520;11.284;2023-03-23T12:29:35;1.63;;;1.53;;
15931;SDS011;8065;49.520;11.284;2023-03-23T12:32:28;1.77;;;1.57;;
15931;SDS011;8065;49.520;11.284;2023-03-23T12:35:04;2.03;;;1.40;;
15931;SDS011;8065;49.520;11.284;2023-03-23T12:37:45;2.40;;;1.60;;
15931;SDS011;8065;49.520;11.284;2023-03-23T12:40:29;1.87;;;1.50;;
15931;SDS011;8065;49.520;11.284;2023-03-23T12:43:05;2.20;;;1.60;;
15931;SDS011;8065;49.520;11.284;2023-03-23T12:45:43;1.77;;;1.50;;
15931;SDS011;8065;49.520;11.284;2023-03-23T12:48:24;2.30;;;1.50;;
15931;SDS011;8065;49.520;11.284;2023-03-23T12:51:02;1.60;;;1.50;;
15931;SDS011;8065;49.520;11.284;2023-03-23T12:53:36;1.63;;;1.43;;
15931;SDS011;8065;49.520;11.284;2023-03-23T12:56:11;3.80;;;1.80;;
15931;SDS011;8065;49.520;11.284;2023-03-23T12:58:42;1.70;;;1.60;;
15931;SDS011;8065;49.520;11.284;2023-03-23T13:01:11;1.70;;;1.60;;
15931;SDS011;8065;49.520;11.284;2023-03-23T13:03:47;2.70;;;1.80;;
15931;SDS011;8065;49.520;11.284;2023-03-23T13:06:20;1.57;;;1.20;;
15931;SDS011;8065;49.520;11.284;2023-03-23T13:08:51;1.30;;;1.20;;
15931;SDS011;8065;49.520;11.284;2023-03-23T13:11:24;1.40;;;1.30;;
15931;SDS011;8065;49.520;11.284;2023-03-23T13:13:59;1.63;;;1.07;;
15931;SDS011;8065;49.520;11.284;2023-03-23T13:16:37;1.20;;;1.10;;
15931;SDS011;8065;49.520;11.284;2023-03-23T13:19:10;1.60;;;1.20;;
15931;SDS011;8065;49.520;11.284;2023-03-23T13:21:44;2.30;;;1.27;;
15931;SDS011;8065;49.520;11.284;2023-03-23T13:24:17;1.80;;;1.30;;
15931;SDS011;8065;49.520;11.284;2023-03-23T13:26:49;1.20;;;1.03;;
15931;SDS011;8065;49.520;11.284;2023-03-23T13:29:17;1.00;;;0.90;;
15931;SDS011;8065;49.520;11.284;2023-03-23T13:31:45;2.30;;;1.30;;
15931;SDS011;8065;49.520;11.284;2023-03-23T13:34:15;1.80;;;1.10;;
15931;SDS011;8065;49.520;11.284;2023-03-23T13:36:51;1.13;;;1.00;;
15931;SDS011;8065;49.520;11.284;2023-03-23T13:39:21;2.33;;;1.67;;
15931;SDS011;8065;49.520;11.284;2023-03-23T13:42:00;1.30;;;1.20;;
15931;SDS011;8065;49.520;11.284;2023-03-23T13:44:39;1.53;;;1.20;;
15931;SDS011;8065;49.520;11.284;2023-03-23T13:47:16;1.47;;;1.37;;
15931;SDS011;8065;49.520;11.284;2023-03-23T13:49:49;1.40;;;1.30;;
15931;SDS011;8065;49.520;11.284;2023-03-23T13:52:22;1.20;;;1.20;;
15931;SDS011;8065;49.520;11.284;2023-03-23T13:54:50;1.40;;;1.30;;
15931;SDS011;8065;49.520;11.284;2023-03-23T13:57:32;1.30;;;1.20;;
15931;SDS011;8065;49.520;11.284;2023-03-23T14:00:09;1.50;;;1.40;;
15931;SDS011;8065;49.520;11.284;2023-03-23T14:02:40;1.47;;;1.37;;
15931;SDS011;8065;49.520;11.284;2023-03-23T14:05:10;1.43;;;1.33;;
15931;SDS011;8065;49.520;11.284;2023-03-23T14:07:54;2.80;;;1.20;;
15931;SDS011;8065;49.520;11.284;2023-03-23T14:10:24;1.00;;;1.00;;
15931;SDS011;8065;49.520;11.284;2023-03-23T14:12:58;1.60;;;1.50;;
15931;SDS011;8065;49.520;11.284;2023-03-23T14:15:28;2.00;;;1.50;;
15931;SDS011;8065;49.520;11.284;2023-03-23T14:17:54;2.00;;;1.40;;
15931;SDS011;8065;49.520;11.284;2023-03-23T14:20:23;1.40;;;1.30;;
15931;SDS011;8065;49.520;11.284;2023-03-23T14:22:53;1.50;;;1.40;;
15931;SDS011;8065;49.520;11.284;2023-03-23T14:25:21;2.17;;;1.60;;
15931;SDS011;8065;49.520;11.284;2023-03-23T14:27:50;1.50;;;1.40;;
15931;SDS011;8065;49.520;11.284;2023-03-23T14:30:19;2.10;;;1.27;;
15931;SDS011;8065;49.520;11.284;2023-03-23T14:32:47;1.57;;;1.47;;
15931;SDS011;8065;49.520;11.284;2023-03-23T14:35:17;1.60;;;1.40;;
15931;SDS011;8065;49.520;11.284;2023-03-23T14:37:52;1.40;;;1.30;;
15931;SDS011;8065;49.520;11.284;2023-03-23T14:40:18;1.23;;;1.13;;
15931;SDS011;8065;49.520;11.284;2023-03-23T14:42:46;1.40;;;1.30;;
15931;SDS011;8065;49.520;11.284;2023-03-23T14:45:14;1.60;;;1.30;;
15931;SDS011;8065;49.520;11.284;2023-03-23T14:47:44;1.63;;;1.20;;
15931;SDS011;8065;49.520;11.284;2023-03-23T14:50:22;1.63;;;1.47;;
15931;SDS011;8065;49.520;11.284;2023-03-23T14:52:55;1.50;;;1.37;;
15931;SDS011;8065;49.520;11.284;2023-03-23T14:55:24;2.37;;;1.00;;
15931;SDS011;8065;49.520;11.284;2023-03-23T14:57:53;1.47;;;1.30;;
15931;SDS011;8065;49.520;11.284;2023-03-23T15:00:21;1.30;;;1.20;;
15931;SDS011;8065;49.520;11.284;2023-03-23T15:02:51;1.57;;;1.43;;
15931;SDS011;8065;49.520;11.284;2023-03-23T15:05:21;2.20;;;1.30;;
15931;SDS011;8065;49.520;11.284;2023-03-23T15:07:53;2.10;;;1.30;;
15931;SDS011;8065;49.520;11.284;2023-03-23T15:10:22;1.73;;;1.47;;
15931;SDS011;8065;49.520;11.284;2023-03-23T15:12:50;1.20;;;1.10;;
15931;SDS011;8065;49.520;11.284;2023-03-23T15:15:24;2.00;;;1.50;;